createdAt,value
2022-11-15T00:03:54.523Z,77.60
2022-11-15T00:09:04.887Z,77.25
2022-11-15T00:14:14.926Z,77.28
2022-11-15T00:19:25.401Z,77.36
2022-11-15T00:24:35.927Z,77.81
2022-11-15T00:29:46.374Z,77.53
2022-11-15T00:34:57.401Z,77.36
2022-11-15T00:40:08.893Z,77.41
2022-11-15T00:45:19.002Z,77.62
2022-11-15T00:50:29.505Z,76.98
2022-11-15T00:55:40.105Z,77.58
2022-11-15T01:00:50.590Z,77.49
2022-11-15T01:06:01.723Z,77.39
2022-11-15T01:11:13.272Z,78.00
2022-11-15T01:16:23.604Z,77.92
2022-11-15T01:21:34.050Z,78.23
2022-11-15T01:26:44.451Z,77.83
2022-11-15T01:31:55.089Z,77.81
2022-11-15T01:37:05.445Z,77.46
2022-11-15T01:42:15.786Z,77.43
2022-11-15T01:47:33.974Z,77.48
2022-11-15T01:52:44.764Z,77.63
2022-11-15T01:57:59.076Z,77.39
2022-11-15T02:03:09.753Z,77.72
2022-11-15T02:08:22.992Z,77.09
2022-11-15T02:13:33.538Z,77.91
2022-11-15T02:18:53.174Z,78.12
2022-11-15T02:24:15.546Z,77.85
2022-11-15T02:30:06.892Z,77.30
2022-11-15T02:35:36.045Z,77.53
2022-11-15T02:40:54.863Z,77.90
2022-11-15T02:46:16.007Z,78.15
2022-11-15T02:51:26.657Z,78.54
2022-11-15T02:56:37.713Z,78.48
2022-11-15T03:02:15.652Z,78.06
2022-11-15T03:07:45.514Z,78.13
2022-11-15T03:13:05.162Z,77.98
2022-11-15T03:18:22.511Z,77.80
2022-11-15T03:23:35.017Z,77.25
2022-11-15T03:28:56.585Z,77.51
2022-11-15T03:34:11.983Z,77.80
2022-11-15T03:39:24.454Z,77.30
2022-11-15T03:44:46.553Z,77.31
2022-11-15T03:50:01.819Z,77.10
2022-11-15T03:55:16.721Z,77.48
2022-11-15T04:00:27.332Z,77.05
2022-11-15T04:05:37.814Z,77.43
2022-11-15T04:10:50.523Z,77.13
2022-11-15T04:16:00.833Z,77.13
2022-11-15T04:21:29.712Z,77.56
2022-11-15T04:26:40.074Z,77.49
2022-11-15T04:31:50.417Z,77.86
2022-11-15T04:37:12.641Z,77.65
2022-11-15T04:42:22.815Z,77.45
2022-11-15T04:47:33.448Z,77.72
2022-11-15T04:52:50.783Z,77.75
2022-11-15T04:58:03.070Z,77.30
2022-11-15T05:03:32.480Z,77.30
2022-11-15T05:08:43.468Z,78.00
2022-11-15T05:13:54.279Z,78.92
2022-11-15T05:19:05.083Z,79.20
2022-11-15T05:24:15.433Z,79.45
2022-11-15T05:29:25.591Z,80.25
2022-11-15T05:34:36.120Z,80.03
2022-11-15T05:39:46.508Z,80.00
2022-11-15T05:44:59.316Z,80.11
2022-11-15T05:50:13.722Z,81.12
2022-11-15T05:55:24.030Z,82.12
2022-11-15T06:00:34.495Z,82.69
2022-11-15T06:05:44.462Z,82.71
2022-11-15T06:10:54.677Z,82.90
2022-11-15T06:16:05.394Z,83.20
2022-11-15T06:21:15.505Z,83.57
2022-11-15T06:26:25.668Z,83.51
2022-11-15T06:31:36.109Z,82.89
2022-11-15T06:36:46.190Z,83.38
2022-11-15T06:41:56.504Z,83.47
2022-11-15T06:47:06.655Z,83.21
2022-11-15T06:52:19.449Z,82.89
2022-11-15T06:57:29.441Z,82.28
2022-11-15T07:02:39.574Z,82.14
2022-11-15T07:07:57.500Z,81.15
2022-11-15T07:13:07.812Z,79.92
2022-11-15T07:18:18.058Z,79.46
2022-11-15T07:23:28.734Z,78.43
2022-11-15T07:28:39.209Z,78.26
2022-11-15T07:33:49.950Z,77.86
2022-11-15T07:39:00.151Z,76.96
2022-11-15T07:44:10.385Z,74.32
2022-11-15T07:49:20.636Z,70.03
2022-11-15T07:54:31.214Z,69.40
2022-11-15T07:59:41.367Z,69.17
2022-11-15T08:04:51.564Z,69.14
2022-11-15T08:10:02.244Z,68.44
2022-11-15T08:15:12.530Z,68.58
2022-11-15T08:20:22.778Z,68.45
2022-11-15T08:25:34.333Z,68.20
2022-11-15T08:30:46.438Z,67.88
2022-11-15T08:36:01.170Z,66.54
2022-11-15T08:41:15.506Z,64.71
2022-11-15T08:46:25.851Z,64.18
2022-11-15T08:51:36.134Z,62.73
2022-11-15T08:56:46.555Z,61.69
2022-11-15T09:01:57.080Z,60.38
2022-11-15T09:07:07.713Z,60.19
2022-11-15T09:12:17.981Z,59.79
2022-11-15T09:17:28.324Z,59.33
2022-11-15T09:22:39.697Z,59.13
2022-11-15T09:27:49.864Z,57.57
2022-11-15T09:33:00.012Z,57.04
2022-11-15T09:38:10.571Z,57.67
2022-11-15T09:43:33.205Z,58.18
2022-11-15T09:48:48.456Z,57.94
2022-11-15T09:54:51.589Z,58.19
2022-11-15T09:59:55.620Z,57.55
2022-11-15T10:04:47.798Z,57.35
2022-11-15T10:10:00.184Z,56.75
2022-11-15T10:15:03.256Z,56.58
2022-11-15T10:20:22.041Z,55.93
2022-11-15T10:25:16.932Z,55.44
2022-11-15T10:30:14.487Z,54.04
2022-11-15T10:35:26.921Z,52.83
2022-11-15T10:40:25.447Z,52.34
2022-11-15T10:45:32.109Z,51.56
2022-11-15T10:50:32.995Z,49.81
2022-11-15T10:55:34.181Z,49.23
2022-11-15T11:00:32.998Z,48.67
2022-11-15T11:05:27.792Z,48.62
2022-11-15T11:10:49.632Z,50.31
2022-11-15T11:15:34.675Z,49.52
2022-11-15T11:21:01.873Z,48.66
2022-11-15T11:26:29.801Z,48.36
2022-11-15T11:31:34.874Z,50.20
2022-11-15T11:36:51.393Z,49.95
2022-11-15T11:41:58.178Z,49.62
2022-11-15T11:47:05.047Z,49.58
2022-11-15T11:52:26.679Z,49.93
2022-11-15T11:57:39.273Z,50.17
2022-11-15T12:02:42.315Z,50.30
2022-11-15T12:07:36.930Z,49.72
2022-11-15T12:12:42.387Z,49.08
2022-11-15T12:17:34.140Z,49.77
2022-11-15T12:23:01.755Z,49.34
2022-11-15T12:28:36.133Z,48.98
2022-11-15T12:33:46.691Z,48.74
2022-11-15T12:39:03.772Z,49.32
2022-11-15T12:43:56.543Z,49.88
2022-11-15T12:48:51.732Z,49.95
2022-11-15T12:53:43.559Z,49.98
2022-11-15T12:58:56.885Z,50.43
2022-11-15T13:04:19.655Z,51.06
2022-11-15T13:09:31.248Z,51.02
2022-11-15T13:14:38.137Z,51.00
2022-11-15T13:19:30.031Z,50.79
2022-11-15T13:24:21.720Z,51.00
2022-11-15T13:29:21.137Z,51.70
2022-11-15T13:34:50.612Z,53.72
2022-11-15T13:39:41.167Z,55.72
2022-11-15T13:44:34.186Z,57.12
2022-11-15T13:49:30.984Z,57.64
2022-11-15T13:54:28.720Z,58.05
2022-11-15T13:59:27.855Z,58.32
2022-11-15T14:04:22.838Z,58.03
2022-11-15T14:09:14.473Z,58.01
2022-11-15T14:14:09.064Z,58.08
2022-11-15T14:19:00.789Z,58.77
2022-11-15T14:23:52.657Z,58.90
2022-11-15T14:28:44.290Z,59.27
2022-11-15T14:33:39.900Z,59.31
2022-11-15T14:38:31.904Z,59.13
2022-11-15T14:43:24.229Z,59.59
2022-11-15T14:48:15.803Z,59.67
2022-11-15T14:53:07.908Z,59.56
2022-11-15T14:58:00.137Z,59.77
2022-11-15T15:02:54.782Z,60.13
2022-11-15T15:07:47.490Z,60.11
2022-11-15T15:12:39.632Z,60.43
2022-11-15T15:17:31.241Z,60.53
2022-11-15T15:22:23.498Z,60.73
2022-11-15T15:27:15.205Z,60.91
2022-11-15T15:32:07.134Z,61.30
2022-11-15T15:37:25.089Z,61.47
2022-11-15T15:42:16.770Z,61.35
2022-11-15T15:47:21.004Z,61.87
2022-11-15T15:52:12.658Z,61.97
2022-11-15T15:57:04.661Z,62.14
2022-11-15T16:01:56.242Z,62.56
2022-11-15T16:06:47.951Z,62.78
2022-11-15T16:11:39.686Z,62.67
2022-11-15T16:16:31.391Z,62.91
2022-11-15T16:21:23.070Z,63.09
2022-11-15T16:26:24.901Z,63.49
2022-11-15T16:31:19.144Z,63.35
2022-11-15T16:36:19.178Z,63.35
2022-11-15T16:41:10.797Z,63.13
2022-11-15T16:46:14.566Z,63.24
2022-11-15T16:51:06.529Z,63.37
2022-11-15T16:55:58.313Z,63.26
2022-11-15T17:00:57.883Z,63.88
2022-11-15T17:05:50.553Z,63.78
2022-11-15T17:10:42.287Z,63.96
2022-11-15T17:15:33.990Z,63.95
2022-11-15T17:20:26.116Z,64.22
2022-11-15T17:25:17.737Z,64.43
2022-11-15T17:30:11.979Z,65.00
2022-11-15T17:35:04.328Z,68.78
2022-11-15T17:39:56.042Z,69.87
2022-11-15T17:44:47.787Z,71.31
2022-11-15T17:49:40.772Z,72.48
2022-11-15T17:54:32.671Z,73.06
2022-11-15T17:59:24.303Z,73.63
2022-11-15T18:04:16.024Z,74.75
2022-11-15T18:09:08.474Z,77.33
2022-11-15T18:14:02.965Z,82.71
2022-11-15T18:18:55.194Z,80.29
2022-11-15T18:23:47.650Z,79.47
2022-11-15T18:28:43.390Z,81.98
2022-11-15T18:33:35.645Z,83.26
2022-11-15T18:38:30.660Z,82.92
2022-11-15T18:43:22.441Z,84.01
2022-11-15T18:48:14.072Z,83.04
2022-11-15T18:53:05.715Z,84.44
2022-11-15T18:57:57.307Z,85.54
2022-11-15T19:02:49.128Z,85.01
2022-11-15T19:07:40.949Z,85.54
2022-11-15T19:12:32.595Z,85.39
2022-11-15T19:17:24.191Z,86.14
2022-11-15T19:22:15.801Z,85.78
2022-11-15T19:27:07.386Z,86.36
2022-11-15T19:31:59.048Z,85.92
2022-11-15T19:36:51.144Z,86.63
2022-11-15T19:41:44.124Z,86.66
2022-11-15T19:46:36.332Z,87.23
2022-11-15T19:51:30.727Z,87.61
2022-11-15T19:56:23.089Z,87.35
2022-11-15T20:01:18.132Z,87.24
2022-11-15T20:06:12.291Z,87.41
2022-11-15T20:11:05.741Z,87.82
2022-11-15T20:15:58.268Z,87.30
2022-11-15T20:20:50.506Z,87.46
2022-11-15T20:25:46.631Z,87.38
2022-11-15T20:30:38.318Z,88.15
2022-11-15T20:35:30.655Z,88.02
2022-11-15T20:40:22.294Z,88.12
2022-11-15T20:45:13.971Z,87.49
2022-11-15T20:50:35.261Z,88.17
2022-11-15T20:55:18.613Z,88.29
2022-11-15T21:00:10.872Z,87.96
2022-11-15T21:05:02.762Z,88.23
2022-11-15T21:10:12.835Z,87.86
2022-11-15T21:15:04.996Z,88.35
2022-11-15T21:19:56.573Z,88.83
2022-11-15T21:24:48.137Z,89.11
2022-11-15T21:29:39.815Z,89.20
2022-11-15T21:34:31.418Z,88.92
2022-11-15T21:39:23.084Z,89.13
2022-11-15T21:44:14.765Z,88.98
2022-11-15T21:49:07.555Z,89.60
2022-11-15T21:53:59.421Z,89.22
2022-11-15T21:58:51.450Z,89.37
2022-11-15T22:03:43.250Z,89.51
2022-11-15T22:08:35.505Z,89.34
2022-11-15T22:13:27.443Z,89.59
2022-11-15T22:18:23.600Z,89.58
2022-11-15T22:23:17.976Z,90.01
2022-11-15T22:28:09.688Z,89.58
2022-11-15T22:33:01.404Z,90.36
2022-11-15T22:37:53.111Z,89.36
2022-11-15T22:42:44.811Z,89.90
2022-11-15T22:47:36.532Z,89.77
2022-11-15T22:52:28.152Z,89.52
2022-11-15T22:57:19.836Z,89.97
2022-11-15T23:02:11.537Z,90.31
2022-11-15T23:07:03.271Z,90.30
2022-11-15T23:12:15.076Z,90.02
2022-11-15T23:17:07.041Z,90.45
2022-11-15T23:22:17.220Z,90.11
2022-11-15T23:27:09.163Z,90.48
2022-11-15T23:32:19.301Z,90.34
2022-11-15T23:37:13.405Z,90.29
2022-11-15T23:42:09.023Z,90.56
2022-11-15T23:47:01.216Z,90.52
2022-11-15T23:51:52.866Z,90.63
2022-11-15T23:56:44.511Z,90.48
